Time;durP1;ratioP1;P1;durP2;ratioP2;P2;SDS_P1;SDS_P2;PMS_P1;PMS_P2;Temp;Humidity;BMP_temperature;BMP_pressure;BME280_temperature;BME280_humidity;BME280_pressure;Samples;Min_cycle;Max_cycle;Signal;HPM_P1;HPM_P2
2022/07/21 00:00:26;;;;;;;;;;;;;;;;;;1033947;28;3942;-48
2022/07/21 00:01:08;;;;;;;;;;;;;;;;;;1037916;28;4126;-51
2022/07/21 00:01:39;;;;;;;;;;;;;;;;;;1033590;28;1542;-48
2022/07/21 00:02:09;;;;;;;;;;;;;;;;;;1035064;28;3901;-51
2022/07/21 00:02:39;;;;;;;;;;;;;;;;;;1037529;28;1671;-50
2022/07/21 00:03:09;;;;;;;;;;;;;;;;;;1033738;28;3839;-53
2022/07/21 00:03:40;;;;;;;;;;;;;;;;;;1036178;28;1592;-53
2022/07/21 00:04:10;;;;;;;;;;;;;;;;;;1036679;28;4571;-50
2022/07/21 00:04:40;;;;;;;;;;;;;;;;;;1035907;28;1857;-51
2022/07/21 00:05:11;;;;;;;;;;;;;;;;;;1040698;28;3846;-51
2022/07/21 00:05:41;;;;;;;;;;;;;;;;;;1042297;28;1631;-52
2022/07/21 00:06:11;;;;;;;;;;;;;;;;;;1037388;28;4288;-52
2022/07/21 00:06:42;;;;;;;;;;;;;;;;;;1039109;28;1680;-50
2022/07/21 00:07:12;;;;;;;;;;;;;;;;;;1037669;28;4153;-52
2022/07/21 00:07:42;;;;;;;;;;;;;;;;;;1038362;28;1661;-50
2022/07/21 00:08:13;;;;;;;;;;;;;;;;;;1035804;28;4389;-49
2022/07/21 00:08:44;;;;;;;;;;;;;;;;;;1036528;28;1430;-50
2022/07/21 00:09:14;;;;;;;;;;;;;;;;;;1035841;28;4240;-48
2022/07/21 00:09:45;;;;;;;;;;;;;;;;;;1040559;28;1611;-54
2022/07/21 00:10:16;;;;;;;;;;;;;;;;;;1037420;28;4039;-52
2022/07/21 00:10:46;;;;;;;;;;;;;;;;;;1034383;28;1558;-50
2022/07/21 00:11:17;;;;;;;;;;;;;;;;;;1033283;28;4099;-51
2022/07/21 00:11:47;;;;;;;;;;;;;;;;;;1035011;28;1613;-52
2022/07/21 00:12:17;;;;;;;;;;;;;;;;;;1033896;28;4417;-50
2022/07/21 00:12:48;;;;;;;;;;;;;;;;;;1038211;28;1548;-48
2022/07/21 00:13:18;;;;;;;;;;;;;;;;;;1037220;28;4049;-50
2022/07/21 00:13:48;;;;;;;;;;;;;;;;;;1038664;28;1689;-49
2022/07/21 00:14:19;;;;;;;;;;;;;;;;;;1037426;28;3892;-51
2022/07/21 00:14:49;;;;;;;;;;;;;;;;;;1038623;28;1851;-51
2022/07/21 00:15:20;;;;;;;;;;;;;;;;;;1037580;28;3930;-51
2022/07/21 00:15:50;;;;;;;;;;;;;;;;;;1038446;28;1400;-51
2022/07/21 00:16:20;;;;;;;;;;;;;;;;;;1037786;28;4463;-53
2022/07/21 00:16:51;;;;;;;;;;;;;;;;;;1038742;28;1574;-49
2022/07/21 00:17:21;;;;;;;;;;;;;;;;;;1037567;28;3904;-48
2022/07/21 00:17:52;;;;;;;;;;;;;;;;;;1038379;28;1644;-52
2022/07/21 00:18:22;;;;;;;;;;;;;;;;;;1037441;28;4251;-51
2022/07/21 00:18:52;;;;;;;;;;;;;;;;;;1034231;28;1392;-53
2022/07/21 00:19:23;;;;;;;;;;;;;;;;;;1033646;28;3999;-53
2022/07/21 00:19:53;;;;;;;;;;;;;;;;;;1034838;28;1674;-47
2022/07/21 00:20:24;;;;;;;;;;;;;;;;;;1033410;28;4426;-53
2022/07/21 00:20:55;;;;;;;;;;;;;;;;;;1041711;28;3082;-49
2022/07/21 00:21:26;;;;;;;;;;;;;;;;;;1040911;28;4041;-50
2022/07/21 00:21:56;;;;;;;;;;;;;;;;;;1042579;28;1672;-48
2022/07/21 00:22:40;;;;;;;;;;;;;;;;;;1036349;28;4255;-49
2022/07/21 00:23:17;;;;;;;;;;;;;;;;;;1040167;28;3931;-48
2022/07/21 00:23:47;;;;;;;;;;;;;;;;;;1038524;28;1628;-50
2022/07/21 00:24:18;;;;;;;;;;;;;;;;;;1039873;28;3940;-49
2022/07/21 00:24:48;;;;;;;;;;;;;;;;;;1042444;28;1794;-49
2022/07/21 00:25:18;;;;;;;;;;;;;;;;;;1041220;28;3837;-49
2022/07/21 00:25:49;;;;;;;;;;;;;;;;;;1041147;28;1680;-49
2022/07/21 00:26:19;;;;;;;;;;;;;;;;;;1040914;28;3998;-49
2022/07/21 00:26:49;;;;;;;;;;;;;;;;;;1041130;28;1921;-49
2022/07/21 00:27:20;;;;;;;;;;;;;;;;;;1040089;28;4075;-48
2022/07/21 00:27:50;;;;;;;;;;;;;;;;;;1041477;28;1617;-55
2022/07/21 00:28:27;;;;;;;;;;;;;;;;;;1039919;28;3749;-52
2022/07/21 00:28:58;;;;;;;;;;;;;;;;;;1041019;28;1460;-52
2022/07/21 00:29:28;;;;;;;;;;;;;;;;;;1040480;28;3781;-48
2022/07/21 00:29:58;;;;;;;;;;;;;;;;;;1041509;28;1905;-50
2022/07/21 00:30:29;;;;;;;;;;;;;;;;;;1040111;28;3976;-50
2022/07/21 00:30:59;;;;;;;;;;;;;;;;;;1041016;28;1609;-50
2022/07/21 00:31:29;;;;;;;;;;;;;;;;;;1039131;28;3847;-50
2022/07/21 00:32:00;;;;;;;;;;;;;;;;;;1040844;28;1405;-50
2022/07/21 00:32:30;;;;;;;;;;;;;;;;;;1039496;28;4186;-51
2022/07/21 00:33:01;;;;;;;;;;;;;;;;;;1040770;28;1637;-51
2022/07/21 00:33:31;;;;;;;;;;;;;;;;;;1040809;28;4260;-50
2022/07/21 00:34:01;;;;;;;;;;;;;;;;;;1041208;28;1444;-50
2022/07/21 00:34:32;;;;;;;;;;;;;;;;;;1040343;28;4349;-51
2022/07/21 00:35:03;;;;;;;;;;;;;;;;;;1040370;28;1669;-53
2022/07/21 00:35:33;;;;;;;;;;;;;;;;;;1039797;28;3682;-52
2022/07/21 00:36:04;;;;;;;;;;;;;;;;;;1039899;28;4175;-51
2022/07/21 00:36:34;;;;;;;;;;;;;;;;;;1040630;28;2123;-50
2022/07/21 00:37:04;;;;;;;;;;;;;;;;;;1040593;28;3833;-54
2022/07/21 00:37:35;;;;;;;;;;;;;;;;;;1040452;28;1675;-53
2022/07/21 00:38:05;;;;;;;;;;;;;;;;;;1040472;28;4251;-52
2022/07/21 00:38:36;;;;;;;;;;;;;;;;;;1039801;28;1771;-52
2022/07/21 00:39:06;;;;;;;;;;;;;;;;;;1040102;28;4093;-52
2022/07/21 00:39:36;;;;;;;;;;;;;;;;;;1039498;28;1687;-49
2022/07/21 00:40:08;;;;;;;;;;;;;;;;;;1040831;28;3835;-50
2022/07/21 00:40:38;;;;;;;;;;;;;;;;;;1039319;28;2044;-50
2022/07/21 00:41:09;;;;;;;;;;;;;;;;;;1041111;28;3901;-50
2022/07/21 00:41:39;;;;;;;;;;;;;;;;;;1040939;28;1740;-54
2022/07/21 00:42:19;;;;;;;;;;;;;;;;;;1041554;28;4000;-51
2022/07/21 00:42:50;;;;;;;;;;;;;;;;;;1041118;28;1841;-48
2022/07/21 00:43:20;;;;;;;;;;;;;;;;;;1041691;28;4000;-50
2022/07/21 00:43:51;;;;;;;;;;;;;;;;;;1040512;28;1799;-50
2022/07/21 00:44:22;;;;;;;;;;;;;;;;;;1040806;28;3932;-53
2022/07/21 00:44:53;;;;;;;;;;;;;;;;;;1040223;28;1696;-52
2022/07/21 00:45:23;;;;;;;;;;;;;;;;;;1040627;28;3839;-52
2022/07/21 00:45:54;;;;;;;;;;;;;;;;;;1041157;28;1757;-49
2022/07/21 00:46:25;;;;;;;;;;;;;;;;;;1042090;28;4124;-49
2022/07/21 00:46:55;;;;;;;;;;;;;;;;;;1041521;28;1939;-51
2022/07/21 00:47:27;;;;;;;;;;;;;;;;;;1041641;28;4378;-50
2022/07/21 00:47:57;;;;;;;;;;;;;;;;;;1040621;28;1764;-51
2022/07/21 00:48:27;;;;;;;;;;;;;;;;;;1041361;28;4236;-49
2022/07/21 00:48:57;;;;;;;;;;;;;;;;;;1040676;28;1665;-50
2022/07/21 00:49:28;;;;;;;;;;;;;;;;;;1041210;28;3792;-52
2022/07/21 00:49:59;;;;;;;;;;;;;;;;;;1040466;28;1682;-53
2022/07/21 00:50:29;;;;;;;;;;;;;;;;;;1041828;28;4006;-50
2022/07/21 00:51:00;;;;;;;;;;;;;;;;;;1041394;28;1723;-53
2022/07/21 00:51:30;;;;;;;;;;;;;;;;;;1042189;28;4169;-52
2022/07/21 00:52:00;;;;;;;;;;;;;;;;;;1041277;28;1708;-54
2022/07/21 00:52:31;;;;;;;;;;;;;;;;;;1041129;28;4077;-53
2022/07/21 00:53:01;;;;;;;;;;;;;;;;;;1040231;28;1701;-51
2022/07/21 00:53:32;;;;;;;;;;;;;;;;;;1040698;28;3818;-53
2022/07/21 00:54:02;;;;;;;;;;;;;;;;;;1040576;28;1779;-52
2022/07/21 00:54:33;;;;;;;;;;;;;;;;;;1041055;28;3883;-52
2022/07/21 00:55:03;;;;;;;;;;;;;;;;;;1038876;28;4019;-49
2022/07/21 00:55:34;;;;;;;;;;;;;;;;;;1040138;28;1477;-50
2022/07/21 00:56:04;;;;;;;;;;;;;;;;;;1040156;28;4121;-48
2022/07/21 00:56:34;;;;;;;;;;;;;;;;;;1040716;28;1968;-49
2022/07/21 00:57:05;;;;;;;;;;;;;;;;;;1040219;28;3980;-52
2022/07/21 00:57:35;;;;;;;;;;;;;;;;;;1040730;28;1710;-50
2022/07/21 00:58:06;;;;;;;;;;;;;;;;;;1040243;28;4104;-53
2022/07/21 00:58:36;;;;;;;;;;;;;;;;;;1041383;28;1666;-52
2022/07/21 00:59:06;;;;;;;;;;;;;;;;;;1039702;28;4424;-53
2022/07/21 00:59:37;;;;;;;;;;;;;;;;;;1041013;28;1276;-49
2022/07/21 01:00:09;;;;;;;;;;;;;;;;;;1040368;28;4640;-52
2022/07/21 01:00:39;;;;;;;;;;;;;;;;;;1041652;28;1333;-50
2022/07/21 01:01:10;;;;;;;;;;;;;;;;;;1043438;28;4113;-51
2022/07/21 01:01:40;;;;;;;;;;;;;;;;;;1045597;28;1747;-50
2022/07/21 01:02:11;;;;;;;;;;;;;;;;;;1044072;28;4291;-49
2022/07/21 01:02:41;;;;;;;;;;;;;;;;;;1044910;28;1209;-53
2022/07/21 01:03:12;;;;;;;;;;;;;;;;;;1039003;28;4054;-52
2022/07/21 01:03:42;;;;;;;;;;;;;;;;;;1041155;28;1695;-53
2022/07/21 01:04:12;;;;;;;;;;;;;;;;;;1040595;28;3987;-48
2022/07/21 01:04:43;;;;;;;;;;;;;;;;;;1040294;28;2134;-49
2022/07/21 01:05:18;;;;;;;;;;;;;;;;;;1039879;28;4027;-51
2022/07/21 01:05:48;;;;;;;;;;;;;;;;;;1041447;28;1606;-50
2022/07/21 01:06:19;;;;;;;;;;;;;;;;;;1040568;28;4121;-51
2022/07/21 01:06:49;;;;;;;;;;;;;;;;;;1042287;28;1641;-50
2022/07/21 01:07:19;;;;;;;;;;;;;;;;;;1041343;28;4002;-53
2022/07/21 01:07:51;;;;;;;;;;;;;;;;;;1042721;28;1370;-53
2022/07/21 01:08:22;;;;;;;;;;;;;;;;;;1044907;28;3970;-52
2022/07/21 01:08:52;;;;;;;;;;;;;;;;;;1046225;28;1634;-50
2022/07/21 01:09:23;;;;;;;;;;;;;;;;;;1044970;28;3891;-49
2022/07/21 01:09:55;;;;;;;;;;;;;;;;;;1046559;28;1294;-52
2022/07/21 01:10:25;;;;;;;;;;;;;;;;;;1040124;28;4413;-51
2022/07/21 01:10:55;;;;;;;;;;;;;;;;;;1040787;28;1478;-49
2022/07/21 01:11:26;;;;;;;;;;;;;;;;;;1040214;28;3843;-50
2022/07/21 01:11:57;;;;;;;;;;;;;;;;;;1040666;28;1677;-50
2022/07/21 01:12:28;;;;;;;;;;;;;;;;;;1039891;28;4160;-50
2022/07/21 01:12:59;;;;;;;;;;;;;;;;;;1040482;28;1364;-50
2022/07/21 01:13:29;;;;;;;;;;;;;;;;;;1039450;28;4065;-52
2022/07/21 01:13:59;;;;;;;;;;;;;;;;;;1042159;28;1884;-50
2022/07/21 01:14:30;;;;;;;;;;;;;;;;;;1041485;28;3970;-49
2022/07/21 01:15:00;;;;;;;;;;;;;;;;;;1038036;28;1609;-50
2022/07/21 01:15:31;;;;;;;;;;;;;;;;;;1032787;28;3771;-50
2022/07/21 01:16:01;;;;;;;;;;;;;;;;;;1035845;28;1498;-48
2022/07/21 01:16:31;;;;;;;;;;;;;;;;;;1035597;28;3729;-50
2022/07/21 01:17:02;;;;;;;;;;;;;;;;;;1040732;28;1673;-49
2022/07/21 01:17:33;;;;;;;;;;;;;;;;;;1040679;28;3773;-52
2022/07/21 01:18:03;;;;;;;;;;;;;;;;;;1040505;28;4482;-49
2022/07/21 01:18:33;;;;;;;;;;;;;;;;;;1041200;28;1613;-51
2022/07/21 01:19:05;;;;;;;;;;;;;;;;;;1040349;28;3996;-53
2022/07/21 01:19:35;;;;;;;;;;;;;;;;;;1039973;28;1614;-50
2022/07/21 01:20:14;;;;;;;;;;;;;;;;;;1040035;28;4438;-50
2022/07/21 01:20:50;;;;;;;;;;;;;;;;;;1040135;28;1566;-49
2022/07/21 01:21:28;;;;;;;;;;;;;;;;;;1039657;28;4260;-49
2022/07/21 01:21:59;;;;;;;;;;;;;;;;;;1040798;28;1946;-54
2022/07/21 01:22:43;;;;;;;;;;;;;;;;;;1039362;28;4012;-48
2022/07/21 01:23:21;;;;;;;;;;;;;;;;;;1039242;28;4423;-53
2022/07/21 01:23:52;;;;;;;;;;;;;;;;;;1040323;28;1563;-47
2022/07/21 01:24:22;;;;;;;;;;;;;;;;;;1040544;28;3852;-51
2022/07/21 01:24:52;;;;;;;;;;;;;;;;;;1042097;28;1673;-50
2022/07/21 01:25:23;;;;;;;;;;;;;;;;;;1040762;28;3918;-53
2022/07/21 01:25:53;;;;;;;;;;;;;;;;;;1042192;28;1403;-50
2022/07/21 01:26:23;;;;;;;;;;;;;;;;;;1040811;28;3985;-53
2022/07/21 01:26:53;;;;;;;;;;;;;;;;;;1041090;28;1717;-51
2022/07/21 01:27:25;;;;;;;;;;;;;;;;;;1040119;28;4066;-51
2022/07/21 01:27:55;;;;;;;;;;;;;;;;;;1041527;28;1266;-52
2022/07/21 01:28:25;;;;;;;;;;;;;;;;;;1040216;28;3982;-52
2022/07/21 01:28:56;;;;;;;;;;;;;;;;;;1040449;28;1617;-54
2022/07/21 01:29:26;;;;;;;;;;;;;;;;;;1040442;28;4069;-49
2022/07/21 01:29:57;;;;;;;;;;;;;;;;;;1041154;28;2135;-54
2022/07/21 01:30:27;;;;;;;;;;;;;;;;;;1040387;28;4055;-53
2022/07/21 01:30:57;;;;;;;;;;;;;;;;;;1040606;28;1278;-49
2022/07/21 01:31:27;;;;;;;;;;;;;;;;;;1041293;28;3956;-50
2022/07/21 01:31:58;;;;;;;;;;;;;;;;;;1040375;28;1809;-53
2022/07/21 01:32:28;;;;;;;;;;;;;;;;;;1039695;28;4079;-53
2022/07/21 01:32:58;;;;;;;;;;;;;;;;;;1040015;28;2008;-50
2022/07/21 01:33:29;;;;;;;;;;;;;;;;;;1040095;28;3928;-50
2022/07/21 01:33:59;;;;;;;;;;;;;;;;;;1036768;28;1607;-49
2022/07/21 01:34:29;;;;;;;;;;;;;;;;;;1037866;28;4429;-48
2022/07/21 01:35:00;;;;;;;;;;;;;;;;;;1033393;28;1653;-48
2022/07/21 01:35:30;;;;;;;;;;;;;;;;;;1033060;28;4043;-49
2022/07/21 01:36:00;;;;;;;;;;;;;;;;;;1035288;28;1954;-49
2022/07/21 01:36:31;;;;;;;;;;;;;;;;;;1040541;28;4074;-52
2022/07/21 01:37:01;;;;;;;;;;;;;;;;;;1041224;28;2260;-49
2022/07/21 01:37:31;;;;;;;;;;;;;;;;;;1041558;28;3849;-53
2022/07/21 01:38:02;;;;;;;;;;;;;;;;;;1041123;28;1700;-52
2022/07/21 01:41:49;;;;;;;;;;;;;;;;;;1040404;28;3779;-53
2022/07/21 01:42:19;;;;;;;;;;;;;;;;;;1040660;28;4111;-51
2022/07/21 01:42:50;;;;;;;;;;;;;;;;;;1041422;28;1696;-54
2022/07/21 01:43:20;;;;;;;;;;;;;;;;;;1039980;28;3829;-50
2022/07/21 01:43:50;;;;;;;;;;;;;;;;;;1040158;28;1365;-53
2022/07/21 01:44:21;;;;;;;;;;;;;;;;;;1040080;28;3810;-51
2022/07/21 01:44:51;;;;;;;;;;;;;;;;;;1041347;28;1734;-51
2022/07/21 01:45:22;;;;;;;;;;;;;;;;;;1039531;28;4770;-49
2022/07/21 01:45:52;;;;;;;;;;;;;;;;;;1040464;28;1635;-51
2022/07/21 01:46:23;;;;;;;;;;;;;;;;;;1040167;28;4262;-49
2022/07/21 01:46:53;;;;;;;;;;;;;;;;;;1042193;28;1542;-52
2022/07/21 01:47:24;;;;;;;;;;;;;;;;;;1040175;28;3812;-53
2022/07/21 01:47:54;;;;;;;;;;;;;;;;;;1042125;28;1690;-53
2022/07/21 01:48:24;;;;;;;;;;;;;;;;;;1040725;28;4105;-52
2022/07/21 01:48:54;;;;;;;;;;;;;;;;;;1042704;28;1601;-51
2022/07/21 01:49:25;;;;;;;;;;;;;;;;;;1040837;28;3908;-49
2022/07/21 01:49:55;;;;;;;;;;;;;;;;;;1038090;28;1412;-53
2022/07/21 01:50:26;;;;;;;;;;;;;;;;;;1039567;28;4447;-52
2022/07/21 01:50:56;;;;;;;;;;;;;;;;;;1040323;28;1647;-51
2022/07/21 01:51:27;;;;;;;;;;;;;;;;;;1040483;28;4166;-51
2022/07/21 01:51:57;;;;;;;;;;;;;;;;;;1039669;28;1233;-53
2022/07/21 01:52:27;;;;;;;;;;;;;;;;;;1039478;28;4260;-50
2022/07/21 01:52:58;;;;;;;;;;;;;;;;;;1041353;28;1706;-49
2022/07/21 01:53:28;;;;;;;;;;;;;;;;;;1040581;28;4396;-51
2022/07/21 01:53:59;;;;;;;;;;;;;;;;;;1041955;28;1609;-55
2022/07/21 01:54:29;;;;;;;;;;;;;;;;;;1040860;28;4404;-54
2022/07/21 01:54:59;;;;;;;;;;;;;;;;;;1042590;28;1680;-52
2022/07/21 01:55:31;;;;;;;;;;;;;;;;;;1040717;28;3784;-54
2022/07/21 01:56:01;;;;;;;;;;;;;;;;;;1040717;28;1608;-53
2022/07/21 01:56:32;;;;;;;;;;;;;;;;;;1039868;28;4038;-51
2022/07/21 01:57:02;;;;;;;;;;;;;;;;;;1040917;28;1634;-51
2022/07/21 01:57:32;;;;;;;;;;;;;;;;;;1039032;28;3846;-52
2022/07/21 01:58:02;;;;;;;;;;;;;;;;;;1040099;28;4283;-51
2022/07/21 01:58:33;;;;;;;;;;;;;;;;;;1039974;28;1739;-51
2022/07/21 01:59:04;;;;;;;;;;;;;;;;;;1044709;28;4256;-51
2022/07/21 01:59:34;;;;;;;;;;;;;;;;;;1043653;28;1820;-55
2022/07/21 02:00:05;;;;;;;;;;;;;;;;;;1045165;28;4262;-55
2022/07/21 02:00:35;;;;;;;;;;;;;;;;;;1040728;28;1661;-53
2022/07/21 02:01:05;;;;;;;;;;;;;;;;;;1041481;28;3998;-50
2022/07/21 02:01:36;;;;;;;;;;;;;;;;;;1040939;28;2005;-52
2022/07/21 02:02:06;;;;;;;;;;;;;;;;;;1037372;28;4062;-50
2022/07/21 02:02:36;;;;;;;;;;;;;;;;;;1040970;28;1660;-54
2022/07/21 02:03:07;;;;;;;;;;;;;;;;;;1041603;28;3967;-50
2022/07/21 02:03:37;;;;;;;;;;;;;;;;;;1041361;28;1615;-52
2022/07/21 02:04:07;;;;;;;;;;;;;;;;;;1045936;28;4271;-52
2022/07/21 02:04:37;;;;;;;;;;;;;;;;;;1041062;28;2272;-53
2022/07/21 02:05:08;;;;;;;;;;;;;;;;;;1041214;28;3994;-51
2022/07/21 02:05:41;;;;;;;;;;;;;;;;;;1040912;28;1769;-50
2022/07/21 02:06:12;;;;;;;;;;;;;;;;;;1041173;28;3869;-51
2022/07/21 02:06:42;;;;;;;;;;;;;;;;;;1045509;28;1576;-51
2022/07/21 02:07:13;;;;;;;;;;;;;;;;;;1045212;28;4437;-50
2022/07/21 02:07:43;;;;;;;;;;;;;;;;;;1040078;28;1690;-50
2022/07/21 02:08:13;;;;;;;;;;;;;;;;;;1040359;28;4122;-52
2022/07/21 02:08:43;;;;;;;;;;;;;;;;;;1040159;28;1695;-54
2022/07/21 02:09:14;;;;;;;;;;;;;;;;;;1040900;28;3955;-51
2022/07/21 02:09:44;;;;;;;;;;;;;;;;;;1040532;28;1672;-54
2022/07/21 02:10:14;;;;;;;;;;;;;;;;;;1040620;28;3975;-52
2022/07/21 02:10:44;;;;;;;;;;;;;;;;;;1041395;28;1701;-52
2022/07/21 02:11:15;;;;;;;;;;;;;;;;;;1041374;28;4290;-50
2022/07/21 02:11:46;;;;;;;;;;;;;;;;;;1041231;28;1673;-48
2022/07/21 02:12:16;;;;;;;;;;;;;;;;;;1040629;28;4157;-50
2022/07/21 02:12:46;;;;;;;;;;;;;;;;;;1039969;28;1774;-53
2022/07/21 02:13:16;;;;;;;;;;;;;;;;;;1040648;28;4110;-52
2022/07/21 02:13:47;;;;;;;;;;;;;;;;;;1038721;28;1674;-55
2022/07/21 02:14:17;;;;;;;;;;;;;;;;;;1041182;28;4399;-52
2022/07/21 02:14:47;;;;;;;;;;;;;;;;;;1039932;28;1875;-54
2022/07/21 02:15:18;;;;;;;;;;;;;;;;;;1040393;28;3876;-50
2022/07/21 02:15:48;;;;;;;;;;;;;;;;;;1038819;28;1925;-52
2022/07/21 02:16:18;;;;;;;;;;;;;;;;;;1040096;28;4223;-54
2022/07/21 02:16:49;;;;;;;;;;;;;;;;;;1040418;28;1587;-55
2022/07/21 02:17:25;;;;;;;;;;;;;;;;;;1040062;28;4282;-53
2022/07/21 02:17:56;;;;;;;;;;;;;;;;;;1040387;28;1415;-53
2022/07/21 02:18:26;;;;;;;;;;;;;;;;;;1040744;28;3788;-51
2022/07/21 02:18:57;;;;;;;;;;;;;;;;;;1040143;28;1691;-49
2022/07/21 02:19:27;;;;;;;;;;;;;;;;;;1039696;28;4056;-50
2022/07/21 02:19:57;;;;;;;;;;;;;;;;;;1040790;28;1570;-50
2022/07/21 02:20:28;;;;;;;;;;;;;;;;;;1040484;28;3759;-50
2022/07/21 02:20:58;;;;;;;;;;;;;;;;;;1040503;28;1684;-51
2022/07/21 02:21:28;;;;;;;;;;;;;;;;;;1040638;28;3843;-51
2022/07/21 02:21:59;;;;;;;;;;;;;;;;;;1045621;28;1455;-49
2022/07/21 02:22:29;;;;;;;;;;;;;;;;;;1045730;28;3861;-53
2022/07/21 02:23:12;;;;;;;;;;;;;;;;;;1045015;28;1275;-56
2022/07/21 02:23:49;;;;;;;;;;;;;;;;;;1043079;28;3667;-51
2022/07/21 02:24:19;;;;;;;;;;;;;;;;;;1039804;28;4426;-52
2022/07/21 02:24:50;;;;;;;;;;;;;;;;;;1041705;28;1598;-50
2022/07/21 02:25:20;;;;;;;;;;;;;;;;;;1040931;28;3932;-55
2022/07/21 02:25:52;;;;;;;;;;;;;;;;;;1041819;28;1548;-50
2022/07/21 02:26:22;;;;;;;;;;;;;;;;;;1040745;28;4391;-54
2022/07/21 02:26:52;;;;;;;;;;;;;;;;;;1044827;28;1693;-50
2022/07/21 02:27:22;;;;;;;;;;;;;;;;;;1044039;28;4116;-50
2022/07/21 02:27:53;;;;;;;;;;;;;;;;;;1044415;28;1588;-50
2022/07/21 02:28:23;;;;;;;;;;;;;;;;;;1043119;28;4046;-51
2022/07/21 02:28:54;;;;;;;;;;;;;;;;;;1041677;28;1913;-52
2022/07/21 02:29:24;;;;;;;;;;;;;;;;;;1044287;28;4293;-52
2022/07/21 02:30:01;;;;;;;;;;;;;;;;;;1039817;28;1739;-50
2022/07/21 02:30:32;;;;;;;;;;;;;;;;;;1039704;28;3895;-54
2022/07/21 02:31:02;;;;;;;;;;;;;;;;;;1040505;28;1747;-53
2022/07/21 02:31:33;;;;;;;;;;;;;;;;;;1041057;28;3796;-49
2022/07/21 02:32:04;;;;;;;;;;;;;;;;;;1043997;28;3846;-51
2022/07/21 02:32:34;;;;;;;;;;;;;;;;;;1044339;28;1643;-50
2022/07/21 02:33:04;;;;;;;;;;;;;;;;;;1043714;28;3855;-50
2022/07/21 02:33:34;;;;;;;;;;;;;;;;;;1040776;28;1977;-50
2022/07/21 02:34:06;;;;;;;;;;;;;;;;;;1040225;28;4274;-54
2022/07/21 02:34:36;;;;;;;;;;;;;;;;;;1040085;28;1712;-50
2022/07/21 02:35:07;;;;;;;;;;;;;;;;;;1038024;28;3820;-51
2022/07/21 02:35:37;;;;;;;;;;;;;;;;;;1034298;28;1680;-51
2022/07/21 02:36:08;;;;;;;;;;;;;;;;;;1033965;28;3819;-50
2022/07/21 02:36:39;;;;;;;;;;;;;;;;;;1038051;28;1983;-51
2022/07/21 02:37:09;;;;;;;;;;;;;;;;;;1037270;28;3967;-51
2022/07/21 02:37:39;;;;;;;;;;;;;;;;;;1041606;28;1690;-51
2022/07/21 02:38:10;;;;;;;;;;;;;;;;;;1041394;28;3816;-50
2022/07/21 02:38:41;;;;;;;;;;;;;;;;;;1041305;28;2100;-51
2022/07/21 02:39:11;;;;;;;;;;;;;;;;;;1044092;28;3924;-53
2022/07/21 02:39:41;;;;;;;;;;;;;;;;;;1040994;28;1381;-53
2022/07/21 02:40:11;;;;;;;;;;;;;;;;;;1039993;28;4017;-52
2022/07/21 02:40:42;;;;;;;;;;;;;;;;;;1040022;28;1611;-50
2022/07/21 02:41:12;;;;;;;;;;;;;;;;;;1040087;28;4544;-54
2022/07/21 02:41:43;;;;;;;;;;;;;;;;;;1040608;28;1843;-54
2022/07/21 02:42:13;;;;;;;;;;;;;;;;;;1041201;28;4445;-53
2022/07/21 02:42:43;;;;;;;;;;;;;;;;;;1040045;28;1923;-51
2022/07/21 02:43:14;;;;;;;;;;;;;;;;;;1040371;28;3923;-50
2022/07/21 02:43:44;;;;;;;;;;;;;;;;;;1040275;28;1830;-50
2022/07/21 02:44:14;;;;;;;;;;;;;;;;;;1040647;28;4302;-50
2022/07/21 02:44:44;;;;;;;;;;;;;;;;;;1039634;28;1679;-53
2022/07/21 02:45:15;;;;;;;;;;;;;;;;;;1039951;28;4446;-51
2022/07/21 02:45:45;;;;;;;;;;;;;;;;;;1039651;28;1756;-50
2022/07/21 02:46:15;;;;;;;;;;;;;;;;;;1040048;28;4120;-52
2022/07/21 02:46:46;;;;;;;;;;;;;;;;;;1039482;28;1977;-51
2022/07/21 02:47:16;;;;;;;;;;;;;;;;;;1043675;28;3901;-48
2022/07/21 02:47:54;;;;;;;;;;;;;;;;;;1044867;28;1757;-50
2022/07/21 02:48:24;;;;;;;;;;;;;;;;;;1042035;28;4419;-52
2022/07/21 02:48:57;;;;;;;;;;;;;;;;;;1040640;28;1427;-49
2022/07/21 02:49:28;;;;;;;;;;;;;;;;;;1041469;28;4397;-51
2022/07/21 02:49:58;;;;;;;;;;;;;;;;;;1043816;28;1946;-49
2022/07/21 02:50:29;;;;;;;;;;;;;;;;;;1045068;28;5268;-46
2022/07/21 02:51:00;;;;;;;;;;;;;;;;;;1045426;28;1665;-51
2022/07/21 02:51:30;;;;;;;;;;;;;;;;;;1045231;28;4075;-49
2022/07/21 02:52:00;;;;;;;;;;;;;;;;;;1041115;28;1610;-49
2022/07/21 02:52:30;;;;;;;;;;;;;;;;;;1041145;28;4138;-50
2022/07/21 02:53:02;;;;;;;;;;;;;;;;;;1039631;28;1698;-48
2022/07/21 02:53:33;;;;;;;;;;;;;;;;;;1041064;28;4003;-51
2022/07/21 02:54:03;;;;;;;;;;;;;;;;;;1039679;28;3997;-52
2022/07/21 02:54:33;;;;;;;;;;;;;;;;;;1041528;28;1665;-51
2022/07/21 02:55:04;;;;;;;;;;;;;;;;;;1039976;28;4101;-52
2022/07/21 02:55:35;;;;;;;;;;;;;;;;;;1046343;28;1711;-50
2022/07/21 02:56:05;;;;;;;;;;;;;;;;;;1045799;28;4120;-51
2022/07/21 02:56:35;;;;;;;;;;;;;;;;;;1046030;28;1914;-50
2022/07/21 02:57:06;;;;;;;;;;;;;;;;;;1040481;28;4004;-52
2022/07/21 02:57:36;;;;;;;;;;;;;;;;;;1041769;28;2806;-47
2022/07/21 02:58:17;;;;;;;;;;;;;;;;;;1041519;28;4092;-51
2022/07/21 02:58:47;;;;;;;;;;;;;;;;;;1041008;28;1662;-50
2022/07/21 02:59:17;;;;;;;;;;;;;;;;;;1039986;28;4449;-50
2022/07/21 02:59:48;;;;;;;;;;;;;;;;;;1041281;28;3754;-51
2022/07/21 03:00:18;;;;;;;;;;;;;;;;;;1040864;28;4008;-49
2022/07/21 03:00:50;;;;;;;;;;;;;;;;;;1041075;28;1778;-53
2022/07/21 03:01:21;;;;;;;;;;;;;;;;;;1043749;28;4414;-50
2022/07/21 03:01:51;;;;;;;;;;;;;;;;;;1045052;28;1333;-52
2022/07/21 03:02:21;;;;;;;;;;;;;;;;;;1044200;28;3800;-49
2022/07/21 03:02:51;;;;;;;;;;;;;;;;;;1044733;28;1608;-52
2022/07/21 03:03:23;;;;;;;;;;;;;;;;;;1045752;28;3788;-50
2022/07/21 03:03:54;;;;;;;;;;;;;;;;;;1046647;28;1573;-53
2022/07/21 03:04:30;;;;;;;;;;;;;;;;;;1045196;28;4394;-52
2022/07/21 03:05:01;;;;;;;;;;;;;;;;;;1045720;28;1629;-53
2022/07/21 03:05:31;;;;;;;;;;;;;;;;;;1040735;28;4197;-53
2022/07/21 03:06:02;;;;;;;;;;;;;;;;;;1042614;28;1575;-52
2022/07/21 03:06:33;;;;;;;;;;;;;;;;;;1041145;28;3808;-51
2022/07/21 03:07:03;;;;;;;;;;;;;;;;;;1042085;28;4579;-50
2022/07/21 03:07:34;;;;;;;;;;;;;;;;;;1041303;28;1788;-51
2022/07/21 03:08:05;;;;;;;;;;;;;;;;;;1046589;28;4042;-51
2022/07/21 03:08:35;;;;;;;;;;;;;;;;;;1046382;28;1691;-51
2022/07/21 03:09:06;;;;;;;;;;;;;;;;;;1041913;28;3833;-50
2022/07/21 03:09:37;;;;;;;;;;;;;;;;;;1041447;28;1845;-51
2022/07/21 03:10:07;;;;;;;;;;;;;;;;;;1041785;28;4034;-52
2022/07/21 03:10:38;;;;;;;;;;;;;;;;;;1039799;28;1735;-52
2022/07/21 03:11:09;;;;;;;;;;;;;;;;;;1045460;28;4418;-50
2022/07/21 03:11:39;;;;;;;;;;;;;;;;;;1044011;28;1712;-50
2022/07/21 03:12:09;;;;;;;;;;;;;;;;;;1044758;28;3845;-50
2022/07/21 03:12:39;;;;;;;;;;;;;;;;;;1041515;28;1727;-50
2022/07/21 03:13:10;;;;;;;;;;;;;;;;;;1042150;28;3850;-51
2022/07/21 03:13:40;;;;;;;;;;;;;;;;;;1041819;28;1625;-52
2022/07/21 03:14:10;;;;;;;;;;;;;;;;;;1042005;28;3921;-53
2022/07/21 03:14:41;;;;;;;;;;;;;;;;;;1037258;28;1663;-53
2022/07/21 03:15:11;;;;;;;;;;;;;;;;;;1041952;28;4635;-51
2022/07/21 03:15:41;;;;;;;;;;;;;;;;;;1042325;28;1392;-52
2022/07/21 03:16:12;;;;;;;;;;;;;;;;;;1042000;28;4454;-53
2022/07/21 03:16:42;;;;;;;;;;;;;;;;;;1041355;28;1942;-54
2022/07/21 03:17:12;;;;;;;;;;;;;;;;;;1040985;28;4425;-52
2022/07/21 03:17:42;;;;;;;;;;;;;;;;;;1040700;28;1664;-50
2022/07/21 03:18:13;;;;;;;;;;;;;;;;;;1041696;28;4279;-51
2022/07/21 03:18:43;;;;;;;;;;;;;;;;;;1042032;28;1817;-51
2022/07/21 03:19:13;;;;;;;;;;;;;;;;;;1041916;28;3928;-48
2022/07/21 03:19:44;;;;;;;;;;;;;;;;;;1042376;28;1949;-52
2022/07/21 03:20:14;;;;;;;;;;;;;;;;;;1043935;28;3885;-50
2022/07/21 03:20:45;;;;;;;;;;;;;;;;;;1041633;28;1511;-50
2022/07/21 03:21:15;;;;;;;;;;;;;;;;;;1040480;28;3927;-48
2022/07/21 03:21:46;;;;;;;;;;;;;;;;;;1040588;28;2184;-49
2022/07/21 03:22:16;;;;;;;;;;;;;;;;;;1040209;28;4229;-54
2022/07/21 03:23:00;;;;;;;;;;;;;;;;;;1039958;28;1710;-50
2022/07/21 03:23:37;;;;;;;;;;;;;;;;;;1041117;28;4025;-53
2022/07/21 03:24:07;;;;;;;;;;;;;;;;;;1040539;28;7844;-50
2022/07/21 03:24:38;;;;;;;;;;;;;;;;;;1041104;28;1568;-52
2022/07/21 03:25:08;;;;;;;;;;;;;;;;;;1041722;28;4645;-52
2022/07/21 03:25:39;;;;;;;;;;;;;;;;;;1041574;28;1714;-51
2022/07/21 03:26:09;;;;;;;;;;;;;;;;;;1041637;28;3801;-54
2022/07/21 03:26:39;;;;;;;;;;;;;;;;;;1042054;28;1358;-48
2022/07/21 03:27:09;;;;;;;;;;;;;;;;;;1040892;28;3879;-52
2022/07/21 03:27:40;;;;;;;;;;;;;;;;;;1040937;28;1807;-52
2022/07/21 03:28:10;;;;;;;;;;;;;;;;;;1040653;28;3901;-49
2022/07/21 03:28:41;;;;;;;;;;;;;;;;;;1041227;28;1763;-49
2022/07/21 03:29:12;;;;;;;;;;;;;;;;;;1040729;28;3930;-52
2022/07/21 03:29:42;;;;;;;;;;;;;;;;;;1040785;28;1673;-49
2022/07/21 03:30:13;;;;;;;;;;;;;;;;;;1040547;28;3900;-51
2022/07/21 03:30:43;;;;;;;;;;;;;;;;;;1040332;28;1658;-50
2022/07/21 03:31:13;;;;;;;;;;;;;;;;;;1041287;28;3986;-48
2022/07/21 03:31:44;;;;;;;;;;;;;;;;;;1041008;28;1598;-50
2022/07/21 03:32:14;;;;;;;;;;;;;;;;;;1040993;28;4032;-52
2022/07/21 03:32:44;;;;;;;;;;;;;;;;;;1040498;28;1324;-52
2022/07/21 03:33:15;;;;;;;;;;;;;;;;;;1039720;28;5304;-52
2022/07/21 03:33:45;;;;;;;;;;;;;;;;;;1041580;28;1670;-47
2022/07/21 03:34:15;;;;;;;;;;;;;;;;;;1040678;28;3982;-49
2022/07/21 03:34:45;;;;;;;;;;;;;;;;;;1041341;28;1332;-49
2022/07/21 03:35:16;;;;;;;;;;;;;;;;;;1040459;28;3990;-53
2022/07/21 03:35:46;;;;;;;;;;;;;;;;;;1041592;28;1678;-52
2022/07/21 03:36:17;;;;;;;;;;;;;;;;;;1041047;28;3830;-49
2022/07/21 03:36:47;;;;;;;;;;;;;;;;;;1041591;28;1985;-50
2022/07/21 03:37:17;;;;;;;;;;;;;;;;;;1043933;28;3988;-54
2022/07/21 03:37:52;;;;;;;;;;;;;;;;;;1044533;28;1413;-53